KLRD/LRD METAR and TAF weather

Enter ICAO airport designator
Station Type Date Time Source
KLRD METAR 2020/08/12 17:56 UTC NOAA

KLRD 121756Z 17011G17KT 10SM CLR 36/22 A2994 RMK AO2 SLP132 6//// T03610217 10361 20256 58005 PNO $


Station Type Date Time Source
KLRD Decoded METAR 2020/08/12 17:56 UTC NOAA

Laredo, Laredo International Airport, TX, United States (KLRD) 27-32-37N 099-27-41W
Aug 12, 2020 - 01:56 PM EDT / 2020.08.12 1756 UTC
Wind: from the S (170 degrees) at 13 MPH (11 KT) gusting to 20 MPH (17 KT):0
Visibility: 10 mile(s):0
Sky conditions: clear
Temperature: 97.0 F (36.1 C)
Heat index: 104.9 F (40.5 C):1
Dew Point: 71.1 F (21.7 C)
Relative Humidity: 43%
Pressure (altimeter): 29.94 in. Hg (1013 hPa)
Pressure tendency: 0.01 inches (0.5 hPa) lower than three hours ago
ob: KLRD 121756Z 17011G17KT 10SM CLR 36/22 A2994 RMK AO2 SLP132 6//// T03610217 10361 20256 58005 PNO
cycle: 18

Station Type Date Time Source
KLRD TAF 2020/08/12 18:16 UTC NOAA

TAF KLRD 121714Z 1218/1318 17013KT P6SM SKC
FM122100 14014G20KT P6SM SKC
FM130700 15010KT P6SM SKC
TEMPO 1312/1314 BKN020

Example: see airport list